Latest Coastal Weather Observations for Neptune Island

IDS60701

Issued at 10:35 am CST Thursday 28 August 2014 (issued every 10 minutes, with the page automatically refreshed every 10 minutes)

About coastal observations | Map of coastal stations | Coastal observations for SA | Marine services | Other Formats
Station Details ID: 018115 Name: NEPTUNE ISLAND Lat: -35.34 Lon: 136.12 Height: 32.0 m
Data from the previous 72 hours. | See also: Recent months at Neptune Island
Date/Time
CST
Temp

°C
Wind Pressure Rain
since 9am
mm
Weather Cloud Vis
km
Sea
Height
m
Swell
Dir
 
Speed
knots
Gust
knots
hPa Trend Height
m
Period
s
Dir
28/10:30am 16.8 NNE 12 13 1027.2 - 0.0 - - - - - - -
28/10:00am 16.7 NNE 11 13 1027.5 - 0.0 - - - - - - -
28/09:30am 16.0 NNE 11 12 1027.6 - 0.0 - - - - - - -
28/09:00am 15.8 NNE 9 11 1027.5 - 0.0 - - - - - - -
28/08:30am 15.4 NNE 9 10 1027.5 - 0.0 - - - - - - -
28/08:00am 15.2 NNE 9 11 1027.3 - 0.0 - - - - - - -
28/07:30am 14.7 NNE 11 13 1026.7 - 0.0 - - - - - - -
28/07:00am 14.5 NNE 10 13 1026.5 - 0.0 - - - - - - -
28/06:30am 14.6 NNE 13 15 1026.1 - 0.0 - - - - - - -
28/06:00am 14.4 NNE 14 16 1025.8 - 0.0 - - - - - - -
28/05:30am 14.3 NNE 12 14 1026.0 - 0.0 - - - - - - -
28/05:00am 14.3 NNE 11 13 1026.0 - 0.0 - - - - - - -
28/04:30am 14.3 NNE 10 14 1025.9 - 0.0 - - - - - - -
28/04:00am 14.4 NNE 9 12 1026.0 - 0.0 - - - - - - -
28/03:30am 14.4 NNE 8 9 1026.2 - 0.0 - - - - - - -
28/03:00am 14.3 NNE 7 9 1026.3 - 0.0 - - - - - - -
28/02:30am 14.5 NE 7 9 1026.3 - 0.0 - - - - - - -
28/02:00am 14.6 NE 10 13 1026.4 - 0.0 - - - - - - -
28/01:30am 14.4 NE 9 11 1026.5 - 0.0 - - - - - - -
28/01:00am 14.4 NE 9 11 1026.8 - 0.0 - - - - - - -
28/12:30am 14.5 NE 10 12 1026.8 - 0.0 - - - - - - -
28/12:00am 14.7 ENE 12 13 1026.9 - 0.0 - - - - - - -
 
Date/Time
CST
Temp

°C
Wind Pressure Rain
since 9am
mm
Weather Cloud Vis
km
Sea
Height
m
Swell
Dir
 
Speed
knots
Gust
knots
hPa Trend Height
m
Period
s
Dir
27/11:30pm 14.6 ENE 11 12 1027.1 - 0.0 - - - - - - -
27/11:00pm 14.7 ENE 11 13 1027.0 - 0.0 - - - - - - -
27/10:30pm 14.6 ENE 12 14 1027.0 - 0.0 - - - - - - -
27/10:00pm 14.6 ENE 11 13 1027.0 - 0.0 - - - - - - -
27/09:30pm 14.5 ENE 10 11 1026.9 - 0.0 - - - - - - -
27/09:00pm 14.4 ENE 10 11 1026.8 - 0.0 - - - - - - -
27/08:30pm 14.0 ENE 10 11 1026.8 - 0.0 - - - - - - -
27/08:00pm 14.0 E 11 12 1026.7 - 0.0 - - - - - - -
27/07:30pm 13.9 E 10 11 1026.4 - 0.0 - - - - - - -
27/07:00pm 14.0 E 8 9 1026.2 - 0.0 - - - - - - -
27/06:30pm 13.9 E 7 8 1025.8 - 0.0 - - - - - - -
27/06:00pm 14.0 E 6 7 1025.7 - 0.0 - - - - - - -
27/05:30pm 15.0 E 6 7 1025.5 - 0.0 - - - - - - -
27/05:00pm 15.4 ENE 6 7 1025.2 - 0.0 - - - - - - -
27/04:30pm 15.6 NE 7 8 1025.2 - 0.0 - - - - - - -
27/04:00pm 15.8 ENE 7 7 1025.1 - 0.0 - - - - - - -
27/03:30pm 16.1 NE 5 7 1025.2 - 0.0 - - - - - - -
27/03:00pm 16.7 NE 6 8 1025.1 - 0.0 - - - - - - -
27/02:30pm 16.3 NNE 6 7 1025.2 - 0.0 - - - - - - -
27/02:00pm 16.2 NNE 8 10 1025.0 - 0.0 - - - - - - -
27/01:30pm 16.0 NNE 8 10 1025.1 - 0.0 - - - - - - -
27/01:00pm 16.3 NNE 10 12 1025.3 - 0.0 - - - - - - -
27/12:30pm 16.2 NNE 12 15 1025.4 - 0.0 - - - - - - -
27/12:00pm 16.2 NNE 14 17 1025.5 - 0.0 - - - - - - -
27/11:30am 16.9 NE 11 14 1026.0 - 0.0 - - - - - - -
27/11:00am 16.1 NE 11 12 1026.4 - 0.0 - - - - - - -
27/10:30am 16.0 ENE 10 11 1026.4 - 0.0 - - - - - - -
27/10:00am 15.7 ENE 9 11 1026.5 - 0.0 - - - - - - -
27/09:30am 15.4 ENE 7 9 1026.6 - 0.0 - - - - - - -
27/09:00am 14.8 ENE 8 9 1026.3 - 0.0 - - - - - - -
27/08:30am 14.9 NE 8 9 1026.2 - 0.0 - - - - - - -
27/08:00am 14.1 ENE 6 7 1026.0 - 0.0 - - - - - - -
27/07:30am 13.4 NE 5 6 1025.7 - 0.0 - - - - - - -
27/07:00am 13.3 NE 5 6 1025.4 - 0.0 - - - - - - -
27/06:30am 13.4 NE 6 9 1025.1 - 0.0 - - - - - - -
27/06:00am 13.4 NNE 7 9 1024.8 - 0.0 - - - - - - -
27/05:30am 13.3 NNE 8 11 1024.4 - 0.0 - - - - - - -
27/05:00am 13.1 NNE 9 11 1024.2 - 0.0 - - - - - - -
27/04:30am 13.3 NNE 12 16 1023.9 - 0.0 - - - - - - -
27/04:00am 13.3 NNE 12 17 1023.6 - 0.0 - - - - - - -
27/03:30am 13.2 NNE 10 14 1023.8 - 0.0 - - - - - - -
27/03:00am 13.1 NNE 9 12 1024.1 - 0.0 - - - - - - -
27/02:30am 13.1 NNE 9 13 1024.2 - 0.0 - - - - - - -
27/02:00am 13.4 NE 14 16 1023.9 - 0.0 - - - - - - -
27/01:30am 13.5 NE 15 17 1023.8 - 0.0 - - - - - - -
27/01:00am 13.4 NE 13 16 1023.9 - 0.0 - - - - - - -
27/12:30am 13.5 NE 14 17 1024.2 - 0.0 - - - - - - -
27/12:00am 13.7 ENE 12 14 1024.5 - 0.0 - - - - - - -
 
Date/Time
CST
Temp

°C
Wind Pressure Rain
since 9am
mm
Weather Cloud Vis
km
Sea
Height
m
Swell
Dir
 
Speed
knots
Gust
knots
hPa Trend Height
m
Period
s
Dir
26/11:30pm 13.3 ENE 9 13 1024.7 - 0.0 - - - - - - -
26/11:00pm 13.6 ENE 12 15 1024.6 - 0.0 - - - - - - -
26/10:30pm 13.5 ENE 10 14 1024.9 - 0.0 - - - - - - -
26/10:00pm 13.3 ENE 12 15 1024.6 - 0.0 - - - - - - -
26/09:30pm 13.1 E 10 12 1024.8 - 0.0 - - - - - - -
26/09:00pm 13.2 ENE 12 14 1024.3 - 0.0 - - - - - - -
26/08:30pm 13.0 ENE 11 12 1024.3 - 0.0 - - - - - - -
26/08:00pm 12.7 E 10 11 1024.4 - 0.0 - - - - - - -
26/07:30pm 13.0 ENE 10 12 1024.3 - 0.0 - - - - - - -
26/07:00pm 12.9 E 9 11 1024.2 - 0.0 - - - - - - -
26/06:30pm 13.2 ENE 10 11 1024.0 - 0.0 - - - - - - -
26/06:00pm 13.3 NE 9 10 1023.7 - 0.0 - - - - - - -
26/05:30pm 13.6 NE 9 11 1023.6 - 0.0 - - - - - - -
26/05:00pm 14.0 NE 10 12 1023.5 - 0.0 - - - - - - -
26/04:30pm 14.1 NE 9 11 1023.3 - 0.0 - - - - - - -
26/04:00pm 14.4 ENE 7 8 1023.6 - 0.0 - - - - - - -
26/03:30pm 14.7 NE 7 8 1023.7 - 0.0 - - - - - - -
26/03:00pm 14.8 NE 7 9 1024.1 - 0.0 - - - - - - -
26/02:30pm 14.5 NE 9 10 1024.2 - 0.0 - - - - - - -
26/02:00pm 14.7 NE 8 10 1024.5 - 0.0 - - - - - - -
26/01:30pm 14.9 NE 7 10 1024.7 - 0.0 - - - - - - -
26/01:00pm 15.0 NNE 7 9 1025.1 - 0.0 - - - - - - -
26/12:30pm 15.2 NNE 7 11 1025.4 - 0.0 - - - - - - -
26/12:00pm 15.3 NE 10 12 1025.6 - 0.0 - - - - - - -
26/11:30am 15.2 NE 9 12 1025.9 - 0.0 - - - - - - -
26/11:00am 14.4 NE 11 13 1026.3 - 0.0 - - - - - - -
26/10:30am 14.2 ENE 10 11 1026.8 - 0.0 - - - - - - -
26/10:00am 14.0 NE 12 14 1026.4 - 0.0 - - - - - - -
26/09:30am 13.6 ENE 12 14 1026.6 - 0.0 - - - - - - -
26/09:00am 13.3 ENE 12 15 1026.8 - 0.0 - - - - - - -
26/08:30am 13.1 ENE 12 14 1026.7 - 0.0 - - - - - - -
26/08:00am 12.5 ENE 11 14 1026.8 - 0.0 - - - - - - -
26/07:30am 12.0 ENE 10 13 1026.7 - 0.0 - - - - - - -
26/07:00am 11.5 ENE 10 13 1026.7 - 0.0 - - - - - - -
26/06:30am 11.7 ENE 10 13 1026.4 - 0.0 - - - - - - -
26/06:00am 12.0 NE 12 15 1026.1 - 0.0 - - - - - - -
26/05:30am 11.8 NE 12 14 1026.1 - 0.0 - - - - - - -
26/05:00am 12.1 ENE 12 14 1026.0 - 0.0 - - - - - - -
26/04:30am 12.2 ENE 12 15 1026.1 - 0.0 - - - - - - -
26/04:00am 11.9 E 11 14 1026.2 - 0.0 - - - - - - -
26/03:30am 11.8 ENE 12 14 1026.2 - 0.0 - - - - - - -
26/03:00am 11.8 ENE 13 16 1026.4 - 0.0 - - - - - - -
26/02:30am 11.9 ENE 13 17 1026.6 - 0.0 - - - - - - -
26/02:00am 11.9 ENE 14 16 1026.8 - 0.0 - - - - - - -
26/01:30am 11.9 E 13 16 1027.1 - 0.0 - - - - - - -
26/01:00am 11.9 E 13 17 1027.4 - 0.0 - - - - - - -
26/12:30am 12.0 E 13 15 1027.7 - 0.0 - - - - - - -
26/12:00am 12.3 ENE 13 16 1027.8 - 0.0 - - - - - - -
 
Date/Time
CST
Temp

°C
Wind Pressure Rain
since 9am
mm
Weather Cloud Vis
km
Sea
Height
m
Swell
Dir
 
Speed
knots
Gust
knots
hPa Trend Height
m
Period
s
Dir
25/11:30pm 12.3 ENE 15 17 1027.7 - 0.0 - - - - - - -
25/11:00pm 12.5 ENE 15 18 1027.8 - 0.0 - - - - - - -
25/10:30pm 12.7 ENE 13 16 1028.1 - 0.0 - - - - - - -
25/10:00pm 12.5 E 13 16 1028.3 - 0.0 - - - - - - -
25/09:30pm 12.3 E 12 15 1028.5 - 0.0 - - - - - - -
25/09:00pm 12.2 E 11 13 1028.7 - 0.0 - - - - - - -
25/08:30pm 12.3 ESE 11 15 1028.6 - 0.0 - - - - - - -
25/08:00pm 12.3 ESE 12 14 1028.5 - 0.0 - - - - - - -
25/07:30pm 12.3 ESE 12 15 1028.4 - 0.0 - - - - - - -
25/07:00pm 12.6 ESE 12 14 1028.4 - 0.0 - - - - - - -
25/06:30pm 12.4 ESE 9 12 1028.3 - 0.0 - - - - - - -
25/06:00pm 12.5 SE 8 11 1028.3 - 0.0 - - - - - - -
25/05:30pm 12.8 ESE 7 9 1028.3 - 0.0 - - - - - - -
25/05:00pm 13.3 ESE 5 7 1028.3 - 0.0 - - - - - - -
25/04:30pm 13.8 E 6 8 1028.2 - 0.0 - - - - - - -
25/04:00pm 13.8 ENE 7 9 1028.2 - 0.0 - - - - - - -
25/03:30pm 13.8 ENE 7 9 1028.3 - 0.0 - - - - - - -
25/03:00pm 13.8 ENE 9 12 1028.3 - 0.0 - - - - - - -
25/02:30pm 14.0 ENE 10 13 1028.3 - 0.0 - - - - - - -
25/02:00pm 14.5 ENE 9 12 1028.7 - 0.0 - - - - - - -
25/01:30pm 14.3 ENE 11 14 1028.8 - 0.0 - - - - - - -
25/01:00pm 14.3 ENE 10 12 1029.4 - 0.0 - - - - - - -
25/12:30pm 14.5 ENE 10 14 1029.8 - 0.0 - - - - - - -
25/12:00pm 14.2 ENE 11 14 1030.3 - 0.0 - - - - - - -
25/11:30am 13.7 ENE 13 16 1030.6 - 0.0 - - - - - - -
25/11:00am 13.6 ENE 14 16 1030.8 - 0.0 - - - - - - -

Other Formats:

Comma delimited format used in spreadsheet applications
http://www.bom.gov.au/fwo/IDS60701/IDS60701.94804.axf

JavaScript Object Notation format (JSON) in row-major order
http://www.bom.gov.au/fwo/IDS60701/IDS60701.94804.json